createdAt,value
2023-05-05T00:00:25.740Z,11.19
2023-05-05T00:02:53.486Z,11.25
2023-05-05T00:05:20.371Z,11.32
2023-05-05T00:07:46.950Z,11.24
2023-05-05T00:10:13.697Z,10.59
2023-05-05T00:12:40.473Z,10.78
2023-05-05T00:15:08.587Z,10.75
2023-05-05T00:17:35.226Z,10.73
2023-05-05T00:20:02.129Z,10.58
2023-05-05T00:22:29.084Z,10.58
2023-05-05T00:24:56.077Z,10.50
2023-05-05T00:27:22.829Z,10.66
2023-05-05T00:29:49.400Z,10.59
2023-05-05T00:32:16.203Z,10.83
2023-05-05T00:34:42.823Z,10.58
2023-05-05T00:37:09.450Z,10.38
2023-05-05T00:39:37.462Z,10.43
2023-05-05T00:42:04.355Z,10.46
2023-05-05T00:44:37.628Z,10.37
2023-05-05T00:47:04.507Z,10.27
2023-05-05T00:49:31.743Z,10.16
2023-05-05T00:51:59.249Z,10.11
2023-05-05T00:54:26.091Z,10.25
2023-05-05T00:56:53.448Z,10.09
2023-05-05T00:59:20.886Z,10.20
2023-05-05T01:01:47.613Z,9.89
2023-05-05T01:04:14.223Z,9.68
2023-05-05T01:06:54.053Z,9.96
2023-05-05T01:09:57.939Z,10.17
2023-05-05T01:12:37.741Z,9.92
2023-05-05T01:15:15.261Z,10.05
2023-05-05T01:17:51.687Z,10.03
2023-05-05T01:20:23.747Z,10.20
2023-05-05T01:22:55.025Z,10.03
2023-05-05T01:25:30.380Z,9.83
2023-05-05T01:28:15.641Z,9.80
2023-05-05T01:30:48.026Z,9.89
2023-05-05T01:33:19.298Z,9.94
2023-05-05T01:35:55.415Z,9.77
2023-05-05T01:38:26.281Z,9.56
2023-05-05T01:40:57.688Z,9.42
2023-05-05T01:43:29.591Z,9.44
2023-05-05T01:45:58.633Z,9.22
2023-05-05T01:48:26.469Z,9.32
2023-05-05T01:50:54.089Z,9.08
2023-05-05T01:53:23.775Z,9.08
2023-05-05T01:55:52.677Z,8.89
2023-05-05T01:58:22.811Z,8.82
2023-05-05T02:00:51.030Z,8.91
2023-05-05T02:03:19.692Z,8.91
2023-05-05T02:05:48.623Z,8.90
2023-05-05T02:08:16.461Z,8.97
2023-05-05T02:10:45.000Z,8.89
2023-05-05T02:13:13.281Z,8.53
2023-05-05T02:15:41.194Z,8.42
2023-05-05T02:18:11.997Z,8.41
2023-05-05T02:20:39.875Z,8.59
2023-05-05T02:23:08.069Z,8.71
2023-05-05T02:25:42.076Z,8.58
2023-05-05T02:28:18.482Z,8.49
2023-05-05T02:30:51.555Z,8.04
2023-05-05T02:33:22.105Z,8.22
2023-05-05T02:35:51.438Z,8.46
2023-05-05T02:38:26.461Z,8.59
2023-05-05T02:40:57.463Z,8.68
2023-05-05T02:43:25.887Z,8.20
2023-05-05T02:45:52.676Z,8.03
2023-05-05T02:48:19.398Z,7.89
2023-05-05T02:50:46.009Z,7.99
2023-05-05T02:53:13.023Z,8.25
2023-05-05T02:55:45.437Z,8.47
2023-05-05T02:58:23.715Z,8.40
2023-05-05T03:00:53.787Z,8.27
2023-05-05T03:03:30.842Z,8.13
2023-05-05T03:06:27.364Z,8.11
2023-05-05T03:09:03.124Z,7.79
2023-05-05T03:11:37.030Z,7.81
2023-05-05T03:14:13.212Z,8.10
2023-05-05T03:16:42.650Z,7.88
2023-05-05T03:19:12.410Z,7.68
2023-05-05T03:21:40.885Z,7.71
2023-05-05T03:24:14.053Z,7.62
2023-05-05T03:26:41.824Z,7.58
2023-05-05T03:29:08.565Z,7.73
2023-05-05T03:31:35.687Z,7.72
2023-05-05T03:34:02.362Z,7.72
2023-05-05T03:36:29.944Z,7.63
2023-05-05T03:38:56.571Z,7.74
2023-05-05T03:41:23.844Z,7.54
2023-05-05T03:43:51.639Z,7.63
2023-05-05T03:46:18.356Z,8.38
2023-05-05T03:48:45.415Z,8.65
2023-05-05T03:51:13.175Z,8.90
2023-05-05T03:53:40.118Z,9.07
2023-05-05T03:56:06.905Z,9.23
2023-05-05T03:58:33.604Z,9.29
2023-05-05T04:01:00.275Z,9.33
2023-05-05T04:03:27.071Z,9.26
2023-05-05T04:05:53.876Z,9.23
2023-05-05T04:08:20.530Z,9.22
2023-05-05T04:10:47.125Z,9.35
2023-05-05T04:13:13.829Z,9.48
2023-05-05T04:15:47.181Z,9.63
2023-05-05T04:18:14.306Z,9.72
2023-05-05T04:20:41.121Z,9.85
2023-05-05T04:23:10.117Z,9.87
2023-05-05T04:25:36.764Z,9.93
2023-05-05T04:28:03.504Z,10.03
2023-05-05T04:30:30.158Z,10.07
2023-05-05T04:32:57.025Z,10.18
2023-05-05T04:35:23.661Z,10.25
2023-05-05T04:37:50.300Z,10.29
2023-05-05T04:40:17.084Z,10.44
2023-05-05T04:42:43.734Z,10.49
2023-05-05T04:45:10.828Z,10.67
2023-05-05T04:47:38.883Z,10.79
2023-05-05T04:50:06.372Z,10.93
2023-05-05T04:52:33.439Z,11.09
2023-05-05T04:55:00.610Z,11.27
2023-05-05T04:57:27.489Z,11.43
2023-05-05T04:59:54.076Z,11.47
2023-05-05T05:02:21.280Z,11.47
2023-05-05T05:04:47.966Z,11.53
2023-05-05T05:07:15.153Z,11.57
2023-05-05T05:09:41.756Z,11.66
2023-05-05T05:12:09.800Z,11.83
2023-05-05T05:14:40.107Z,11.93
2023-05-05T05:17:07.882Z,12.17
2023-05-05T05:19:34.673Z,12.16
2023-05-05T05:22:01.404Z,12.43
2023-05-05T05:24:28.118Z,12.52
2023-05-05T05:26:54.772Z,12.69
2023-05-05T05:29:21.447Z,12.91
2023-05-05T05:31:50.334Z,13.04
2023-05-05T05:34:16.995Z,13.18
2023-05-05T05:36:43.637Z,13.30
2023-05-05T05:39:10.255Z,13.33
2023-05-05T05:41:36.841Z,13.47
2023-05-05T05:44:03.521Z,13.63
2023-05-05T05:46:30.292Z,13.87
2023-05-05T05:48:57.367Z,13.80
2023-05-05T05:51:24.017Z,14.04
2023-05-05T05:53:51.893Z,14.15
2023-05-05T05:56:18.487Z,14.37
2023-05-05T05:58:45.333Z,14.47
2023-05-05T06:01:12.034Z,14.55
2023-05-05T06:03:38.725Z,14.77
2023-05-05T06:06:05.619Z,14.83
2023-05-05T06:08:32.320Z,15.01
2023-05-05T06:11:00.595Z,15.06
2023-05-05T06:13:27.366Z,15.01
2023-05-05T06:15:55.134Z,15.30
2023-05-05T06:18:21.878Z,15.42
2023-05-05T06:20:52.394Z,15.58
2023-05-05T06:23:23.291Z,15.64
2023-05-05T06:25:51.208Z,15.76
2023-05-05T06:28:18.733Z,15.83
2023-05-05T06:30:45.498Z,15.92
2023-05-05T06:33:15.120Z,16.28
2023-05-05T06:35:41.772Z,16.31
2023-05-05T06:38:08.616Z,16.28
2023-05-05T06:40:35.406Z,16.57
2023-05-05T06:43:02.061Z,16.78
2023-05-05T06:45:28.693Z,16.97
2023-05-05T06:47:55.714Z,17.16
2023-05-05T06:50:22.386Z,17.04
2023-05-05T06:52:49.108Z,17.00
2023-05-05T06:55:15.841Z,17.06
2023-05-05T06:57:42.464Z,17.13
2023-05-05T07:00:11.484Z,17.39
2023-05-05T07:02:38.698Z,17.50
2023-05-05T07:05:05.997Z,17.60
2023-05-05T07:07:32.718Z,17.91
2023-05-05T07:09:59.391Z,17.77
2023-05-05T07:12:26.138Z,17.91
2023-05-05T07:14:52.794Z,18.00
2023-05-05T07:17:19.495Z,18.27
2023-05-05T07:19:46.119Z,17.99
2023-05-05T07:22:12.821Z,18.17
2023-05-05T07:24:39.461Z,18.26
2023-05-05T07:27:06.992Z,18.43
2023-05-05T07:29:33.637Z,18.39
2023-05-05T07:32:00.314Z,18.74
2023-05-05T07:34:27.604Z,19.33
2023-05-05T07:36:57.542Z,19.70
2023-05-05T07:39:24.213Z,20.15
2023-05-05T07:41:51.907Z,20.48
2023-05-05T07:44:18.525Z,21.13
2023-05-05T07:46:48.005Z,21.57
2023-05-05T07:49:14.497Z,22.05
2023-05-05T07:51:41.339Z,21.72
2023-05-05T07:54:08.373Z,21.83
2023-05-05T07:56:38.028Z,21.96
2023-05-05T07:59:04.682Z,21.61
2023-05-05T08:01:31.277Z,21.27
2023-05-05T08:03:58.188Z,20.18
2023-05-05T08:06:25.245Z,20.01
2023-05-05T08:08:53.428Z,20.43
2023-05-05T08:11:20.820Z,20.03
2023-05-05T08:13:48.650Z,19.64
2023-05-05T08:16:15.813Z,19.43
2023-05-05T08:18:42.508Z,19.37
2023-05-05T08:21:10.080Z,19.15
2023-05-05T08:23:38.752Z,18.83
2023-05-05T08:26:06.728Z,19.16
2023-05-05T08:28:38.981Z,19.09
2023-05-05T08:31:06.849Z,19.01
2023-05-05T08:33:34.385Z,19.16
2023-05-05T08:36:01.178Z,18.94
2023-05-05T08:38:27.837Z,19.33
2023-05-05T08:40:57.587Z,19.12
2023-05-05T08:43:24.322Z,19.32
2023-05-05T08:45:53.697Z,19.47
2023-05-05T08:48:21.050Z,20.05
2023-05-05T08:50:52.872Z,20.49
2023-05-05T08:53:36.651Z,21.31
2023-05-05T08:56:08.939Z,21.70
2023-05-05T08:58:37.559Z,21.83
2023-05-05T09:01:07.447Z,22.16
2023-05-05T09:03:36.867Z,22.59
2023-05-05T09:06:04.050Z,22.70
2023-05-05T09:08:31.865Z,22.12
2023-05-05T09:10:59.680Z,23.49
2023-05-05T09:13:26.453Z,23.68
2023-05-05T09:15:53.182Z,22.92
2023-05-05T09:18:19.801Z,21.46
2023-05-05T09:20:46.474Z,20.75
2023-05-05T09:23:15.238Z,21.34
2023-05-05T09:25:45.235Z,20.94
2023-05-05T09:28:16.478Z,20.65
2023-05-05T09:30:48.375Z,20.93
2023-05-05T09:33:28.997Z,21.11
2023-05-05T09:35:56.228Z,20.88
2023-05-05T09:38:28.563Z,20.85
2023-05-05T09:40:55.294Z,21.17
2023-05-05T09:43:23.901Z,21.65
2023-05-05T09:45:51.211Z,21.24
2023-05-05T09:48:26.749Z,21.85
2023-05-05T09:50:58.791Z,21.83
2023-05-05T09:53:26.579Z,22.04
2023-05-05T09:56:00.977Z,22.34
2023-05-05T09:58:29.544Z,22.25
2023-05-05T10:00:57.668Z,22.74
2023-05-05T10:03:25.305Z,22.53
2023-05-05T10:05:54.164Z,22.32
2023-05-05T10:08:22.691Z,22.31
2023-05-05T10:10:56.292Z,22.56
2023-05-05T10:13:24.544Z,22.87
2023-05-05T10:15:53.253Z,22.20
2023-05-05T10:18:22.734Z,21.41
2023-05-05T10:20:53.081Z,21.84
2023-05-05T10:23:22.709Z,21.75
2023-05-05T10:26:01.691Z,21.62
2023-05-05T10:28:42.193Z,21.69
2023-05-05T10:31:25.633Z,21.01
2023-05-05T10:33:58.707Z,21.02
2023-05-05T10:36:25.920Z,21.22
2023-05-05T10:38:57.256Z,20.89
2023-05-05T10:41:26.110Z,21.05
2023-05-05T10:43:57.685Z,21.47
2023-05-05T10:46:27.118Z,21.92
2023-05-05T10:48:56.982Z,22.46
2023-05-05T10:51:46.950Z,22.96
2023-05-05T10:54:38.523Z,23.32
2023-05-05T10:57:09.753Z,23.52
2023-05-05T10:59:39.171Z,23.45
2023-05-05T11:02:22.151Z,23.40
2023-05-05T11:05:17.033Z,22.79
2023-05-05T11:07:50.052Z,24.08
2023-05-05T11:10:23.295Z,23.38
2023-05-05T11:13:10.199Z,23.93
2023-05-05T11:15:38.064Z,23.57
2023-05-05T11:18:08.294Z,23.05
2023-05-05T11:20:35.447Z,22.81
2023-05-05T11:23:05.448Z,22.10
2023-05-05T11:25:35.750Z,21.78
2023-05-05T11:28:08.653Z,21.37
2023-05-05T11:30:36.700Z,21.35
2023-05-05T11:33:38.374Z,21.75
2023-05-05T11:36:06.794Z,21.79
2023-05-05T11:38:52.490Z,22.03
2023-05-05T11:41:33.886Z,22.43
2023-05-05T11:44:09.895Z,22.53
2023-05-05T11:46:36.571Z,22.70
2023-05-05T11:49:03.611Z,22.92
2023-05-05T11:51:31.686Z,22.50
2023-05-05T11:53:59.213Z,22.93
2023-05-05T11:56:29.284Z,22.88
2023-05-05T11:59:11.413Z,22.89
2023-05-05T12:01:41.500Z,22.65
2023-05-05T12:04:26.646Z,22.60
2023-05-05T12:06:55.448Z,22.31
2023-05-05T12:09:23.272Z,22.35
2023-05-05T12:11:54.231Z,22.64
2023-05-05T12:14:22.847Z,22.45
2023-05-05T12:17:04.085Z,23.11
2023-05-05T12:19:33.408Z,23.40
2023-05-05T12:22:00.978Z,23.38
2023-05-05T12:24:28.090Z,23.82
2023-05-05T12:26:54.673Z,23.91
2023-05-05T12:29:25.611Z,24.24
2023-05-05T12:31:52.390Z,23.99
2023-05-05T12:34:19.564Z,24.55
2023-05-05T12:36:46.714Z,24.13
2023-05-05T12:39:13.467Z,24.62
2023-05-05T12:41:40.354Z,23.69
2023-05-05T12:44:07.181Z,24.08
2023-05-05T12:46:47.176Z,24.48
2023-05-05T12:49:15.277Z,24.08
2023-05-05T12:51:56.290Z,24.01
2023-05-05T12:54:25.149Z,24.68
2023-05-05T12:56:51.796Z,25.97
2023-05-05T12:59:21.201Z,25.91
2023-05-05T13:02:00.154Z,26.11
2023-05-05T13:04:28.120Z,25.58
2023-05-05T13:07:15.779Z,26.07
2023-05-05T13:09:42.706Z,25.63
2023-05-05T13:12:12.145Z,24.76
2023-05-05T13:14:39.574Z,24.95
2023-05-05T13:17:06.517Z,23.56
2023-05-05T13:19:35.555Z,23.19
2023-05-05T13:22:02.615Z,23.43
2023-05-05T13:24:46.379Z,22.69
2023-05-05T13:27:13.865Z,22.62
2023-05-05T13:29:41.743Z,22.60
2023-05-05T13:32:08.495Z,22.96
2023-05-05T13:34:35.096Z,22.92
2023-05-05T13:37:01.722Z,23.41
2023-05-05T13:39:28.391Z,23.53
2023-05-05T13:41:55.078Z,23.30
2023-05-05T13:44:22.105Z,22.96
2023-05-05T13:46:48.894Z,22.93
2023-05-05T13:49:15.635Z,22.77
2023-05-05T13:51:42.302Z,22.68
2023-05-05T13:54:09.739Z,22.56
2023-05-05T13:56:36.615Z,22.86
2023-05-05T13:59:03.520Z,22.82
2023-05-05T14:01:30.553Z,22.76
2023-05-05T14:03:58.003Z,22.60
2023-05-05T14:06:25.088Z,22.48
2023-05-05T14:08:52.154Z,22.42
2023-05-05T14:11:20.773Z,22.17
2023-05-05T14:13:47.570Z,22.02
2023-05-05T14:16:14.560Z,22.20
2023-05-05T14:18:41.315Z,22.09
2023-05-05T14:21:08.045Z,21.90
2023-05-05T14:23:34.709Z,21.87
2023-05-05T14:26:01.513Z,22.27
2023-05-05T14:28:30.882Z,22.57
2023-05-05T14:30:57.902Z,22.40
2023-05-05T14:33:24.599Z,21.98
2023-05-05T14:35:51.298Z,22.23
2023-05-05T14:38:18.117Z,22.49
2023-05-05T14:40:44.810Z,22.41
2023-05-05T14:43:11.413Z,22.63
2023-05-05T14:45:38.135Z,22.53
2023-05-05T14:48:04.954Z,22.82
2023-05-05T14:50:31.551Z,22.80
2023-05-05T14:52:58.308Z,22.65
2023-05-05T14:55:25.136Z,22.65
2023-05-05T14:57:52.105Z,22.46
2023-05-05T15:00:19.845Z,22.57
2023-05-05T15:02:48.212Z,22.74
2023-05-05T15:05:15.218Z,22.85
2023-05-05T15:07:42.942Z,22.48
2023-05-05T15:10:11.668Z,22.38
2023-05-05T15:12:39.085Z,22.14
2023-05-05T15:15:11.100Z,22.56
2023-05-05T15:17:38.936Z,22.68
2023-05-05T15:20:06.889Z,22.63
2023-05-05T15:22:33.965Z,22.73
2023-05-05T15:25:01.266Z,22.44
2023-05-05T15:27:28.137Z,22.68
2023-05-05T15:30:41.792Z,22.56
2023-05-05T15:33:08.468Z,22.67
2023-05-05T15:35:36.293Z,22.30
2023-05-05T15:38:03.368Z,22.50
2023-05-05T15:40:30.148Z,22.40
2023-05-05T15:42:57.383Z,22.36
2023-05-05T15:45:24.111Z,22.44
2023-05-05T15:47:50.943Z,22.57
2023-05-05T15:50:17.678Z,22.48
2023-05-05T15:52:44.445Z,22.37
2023-05-05T15:55:11.902Z,22.27
2023-05-05T15:57:41.427Z,21.95
2023-05-05T16:00:08.532Z,21.79
2023-05-05T16:02:35.461Z,21.59
2023-05-05T16:05:02.449Z,21.45
2023-05-05T16:07:29.281Z,21.37
2023-05-05T16:09:56.824Z,21.32
2023-05-05T16:12:23.399Z,21.26
2023-05-05T16:14:50.043Z,21.24
2023-05-05T16:17:16.628Z,21.29
2023-05-05T16:19:43.211Z,21.39
2023-05-05T16:22:09.951Z,21.46
2023-05-05T16:24:36.690Z,21.56
2023-05-05T16:27:04.292Z,21.61
2023-05-05T16:29:30.930Z,21.70
2023-05-05T16:31:58.936Z,21.72
2023-05-05T16:34:25.789Z,21.78
2023-05-05T16:36:53.453Z,22.01
2023-05-05T16:39:20.162Z,21.89
2023-05-05T16:41:46.758Z,21.79
2023-05-05T16:44:14.488Z,21.72
2023-05-05T16:46:41.181Z,21.66
2023-05-05T16:49:07.885Z,21.62
2023-05-05T16:51:34.559Z,21.56
2023-05-05T16:54:01.245Z,21.46
2023-05-05T16:56:27.931Z,21.35
2023-05-05T16:58:54.550Z,21.39
2023-05-05T17:01:21.182Z,21.31
2023-05-05T17:03:47.788Z,21.30
2023-05-05T17:06:14.489Z,21.23
2023-05-05T17:08:41.171Z,21.19
2023-05-05T17:11:10.878Z,21.08
2023-05-05T17:13:38.241Z,20.91
2023-05-05T17:16:07.798Z,20.74
2023-05-05T17:18:34.595Z,20.60
2023-05-05T17:21:01.278Z,20.42
2023-05-05T17:23:28.051Z,20.36
2023-05-05T17:25:54.784Z,20.24
2023-05-05T17:28:21.396Z,20.08
2023-05-05T17:30:47.992Z,19.88
2023-05-05T17:33:16.865Z,19.81
2023-05-05T17:35:43.591Z,19.73
2023-05-05T17:38:10.168Z,19.66
2023-05-05T17:40:36.750Z,19.51
2023-05-05T17:43:03.343Z,19.47
2023-05-05T17:45:30.752Z,19.29
2023-05-05T17:47:57.550Z,19.11
2023-05-05T17:50:25.300Z,18.85
2023-05-05T17:52:52.081Z,18.75
2023-05-05T17:55:19.438Z,18.63
2023-05-05T17:57:47.339Z,18.56
2023-05-05T18:00:14.286Z,18.59
2023-05-05T18:02:41.091Z,18.39
2023-05-05T18:05:09.126Z,18.38
2023-05-05T18:07:35.874Z,18.02
2023-05-05T18:10:02.517Z,17.82
2023-05-05T18:12:29.108Z,17.56
2023-05-05T18:14:55.692Z,17.58
2023-05-05T18:17:22.509Z,17.67
2023-05-05T18:19:49.649Z,17.36
2023-05-05T18:22:16.465Z,17.12
2023-05-05T18:24:43.394Z,17.14
2023-05-05T18:27:09.975Z,16.97
2023-05-05T18:29:36.670Z,16.76
2023-05-05T18:32:05.921Z,16.63
2023-05-05T18:34:32.948Z,16.60
2023-05-05T18:37:00.429Z,16.60
2023-05-05T18:39:27.198Z,16.31
2023-05-05T18:41:53.890Z,16.16
2023-05-05T18:44:20.488Z,16.16
2023-05-05T18:46:47.321Z,16.13
2023-05-05T18:49:14.120Z,16.06
2023-05-05T18:51:41.444Z,16.10
2023-05-05T18:54:08.098Z,15.94
2023-05-05T18:56:34.697Z,15.94
2023-05-05T18:59:01.345Z,15.75
2023-05-05T19:01:28.197Z,15.62
2023-05-05T19:03:54.902Z,15.52
2023-05-05T19:06:21.676Z,15.34
2023-05-05T19:08:48.355Z,15.21
2023-05-05T19:11:15.261Z,15.03
2023-05-05T19:13:42.495Z,14.75
2023-05-05T19:16:11.272Z,14.65
2023-05-05T19:18:38.512Z,14.73
2023-05-05T19:21:05.413Z,15.00
2023-05-05T19:23:32.268Z,15.15
2023-05-05T19:25:59.022Z,15.07
2023-05-05T19:28:25.674Z,14.91
2023-05-05T19:30:52.557Z,14.61
2023-05-05T19:33:19.253Z,14.33
2023-05-05T19:35:45.908Z,14.17
2023-05-05T19:38:12.726Z,14.03
2023-05-05T19:40:39.848Z,13.92
2023-05-05T19:43:06.885Z,13.91
2023-05-05T19:45:33.977Z,13.77
2023-05-05T19:48:02.411Z,13.85
2023-05-05T19:50:30.483Z,13.67
2023-05-05T19:52:57.840Z,13.60
2023-05-05T19:55:24.607Z,13.48
2023-05-05T19:57:51.465Z,13.55
2023-05-05T20:00:19.619Z,13.21
2023-05-05T20:02:46.489Z,13.06
2023-05-05T20:05:14.967Z,13.07
2023-05-05T20:07:44.413Z,13.18
2023-05-05T20:10:13.215Z,13.07
2023-05-05T20:12:42.503Z,13.15
2023-05-05T20:15:10.972Z,13.02
2023-05-05T20:17:37.752Z,13.02
2023-05-05T20:20:04.815Z,13.30
2023-05-05T20:22:31.536Z,13.51
2023-05-05T20:24:58.354Z,13.74
2023-05-05T20:27:26.644Z,13.26
2023-05-05T20:29:54.646Z,12.89
2023-05-05T20:32:21.398Z,13.02
2023-05-05T20:34:50.906Z,12.95
2023-05-05T20:37:17.541Z,12.86
2023-05-05T20:39:44.261Z,12.99
2023-05-05T20:42:13.036Z,13.10
2023-05-05T20:44:40.075Z,12.65
2023-05-05T20:47:07.438Z,12.49
2023-05-05T20:49:34.652Z,12.42
2023-05-05T20:52:03.247Z,12.59
2023-05-05T20:54:36.222Z,12.46
2023-05-05T20:57:02.856Z,12.36
2023-05-05T20:59:29.565Z,12.27
2023-05-05T21:01:59.342Z,12.21
2023-05-05T21:04:26.018Z,12.17
2023-05-05T21:06:52.652Z,12.07
2023-05-05T21:09:21.475Z,12.06
2023-05-05T21:11:48.834Z,12.08
2023-05-05T21:14:16.446Z,12.09
2023-05-05T21:16:43.173Z,12.22
2023-05-05T21:19:09.863Z,12.22
2023-05-05T21:21:36.624Z,12.08
2023-05-05T21:24:05.512Z,11.90
2023-05-05T21:26:33.785Z,11.77
2023-05-05T21:29:00.382Z,11.77
2023-05-05T21:31:27.058Z,11.67
2023-05-05T21:33:54.266Z,11.67
2023-05-05T21:36:21.330Z,11.79
2023-05-05T21:38:47.998Z,11.93
2023-05-05T21:41:15.759Z,11.88
2023-05-05T21:43:42.397Z,11.85
2023-05-05T21:46:09.056Z,11.66
2023-05-05T21:48:38.790Z,11.49
2023-05-05T21:51:05.656Z,11.27
2023-05-05T21:53:32.237Z,11.23
2023-05-05T21:55:59.095Z,11.28
2023-05-05T21:58:28.417Z,11.22
2023-05-05T22:00:55.049Z,11.05
2023-05-05T22:03:21.705Z,10.98
2023-05-05T22:05:48.346Z,11.09
2023-05-05T22:08:14.958Z,11.03
2023-05-05T22:10:41.758Z,10.95
2023-05-05T22:13:10.358Z,10.97
2023-05-05T22:15:45.989Z,10.92
2023-05-05T22:18:13.173Z,10.92
2023-05-05T22:20:43.049Z,10.98
2023-05-05T22:23:09.625Z,11.01
2023-05-05T22:25:36.273Z,10.90
2023-05-05T22:28:02.916Z,10.87
2023-05-05T22:30:29.736Z,10.84
2023-05-05T22:32:56.585Z,10.89
2023-05-05T22:35:23.302Z,10.96
2023-05-05T22:37:49.920Z,10.86
2023-05-05T22:40:16.593Z,10.80
2023-05-05T22:42:43.818Z,10.79
2023-05-05T22:45:11.018Z,10.73
2023-05-05T22:47:40.907Z,10.33
2023-05-05T22:50:08.414Z,10.28
2023-05-05T22:52:35.149Z,10.26
2023-05-05T22:55:01.845Z,10.25
2023-05-05T22:57:28.555Z,10.25
2023-05-05T22:59:55.209Z,10.28
2023-05-05T23:02:22.032Z,10.39
2023-05-05T23:04:48.726Z,10.29
2023-05-05T23:07:15.497Z,10.31
2023-05-05T23:09:42.159Z,10.32
2023-05-05T23:12:08.833Z,10.23
2023-05-05T23:14:36.083Z,10.16
2023-05-05T23:17:03.964Z,10.03
2023-05-05T23:19:32.684Z,9.84
2023-05-05T23:22:01.748Z,9.85
2023-05-05T23:24:28.670Z,9.81
2023-05-05T23:26:58.346Z,9.85
2023-05-05T23:29:24.982Z,9.82
2023-05-05T23:31:51.608Z,9.81
2023-05-05T23:34:20.255Z,9.79
2023-05-05T23:36:46.833Z,9.73
2023-05-05T23:39:13.442Z,9.73
2023-05-05T23:41:40.044Z,9.54
2023-05-05T23:44:06.816Z,9.59
2023-05-05T23:46:33.439Z,9.55
2023-05-05T23:49:00.065Z,9.49
2023-05-05T23:51:27.413Z,9.40
2023-05-05T23:53:55.865Z,9.45
2023-05-05T23:56:23.540Z,9.42
2023-05-05T23:58:50.189Z,9.31
